Stanley, Kansas
Current Conditions -  °F | °C
As of 9:54 AM on Friday 21 Nov 2014 (Local Time) from KMKC Reporting Station
Overcast Overcast  
Wind Chill: 28°   Ceiling: 1600
Heat Index: 35°   Visibility: 10mi
Dew Point: 20°   Wind: 9mph
Humidity: 54%   Direction: 110°ESE
Pressure: 30.24"   Gusts: NA
Location:  39.0186°N, 94.6662°W
Report Text: KMKC 211554Z 11008KT 10SM OVC016 02/M07 A3024 RMK AO2 SLP246 T00171067
Loading
Personal Weather Stations






























Interactive Weather Map New forecast layout! Learn more

10-Day Weather Forecast

Advertisements
Track Severe Weather on mobile